Observations for GUERNSEY AIRPORT, United Kingdom (EGJB)

EGJB 280520Z 12005KT 9999 FEW008 SCT035 15/14 Q0998 
EGJB 280450Z 13005KT 9999 FEW008 SCT035 14/14 Q0998 
EGJB 280420Z 15004KT 9999 FEW008 14/14 Q0999
EGJB 280350Z 16005KT 9999 FEW008 14/14 Q0999
EGJB 280320Z 17005KT 9999 FEW003 14/13 Q0999
EGJB 280250Z 17005KT 9999 FEW003 14/13 Q0999
EGJB 271950Z 26005KT 9999 FEW006 SCT017 14/14 Q1003 
EGJB 271920Z 27007KT 9999 FEW006 BKN017 14/14 Q1003 
EGJB 271850Z 26007KT 9999 BKN008 BKN015 15/14 Q1004 
EGJB 271820Z 25006KT 9999 VCSH FEW006 15/14 Q1004   
EGJB 271750Z 25007KT 9999 VCSH FEW004 SCT015 15/14 Q1004
EGJB 271720Z 26006KT 9999 -SHRA SCT004 BKN046 15/14 Q1004   
EGJB 271650Z 26007KT 9999 FEW004 BKN045 15/14 Q1005 
EGJB 271620Z 28006KT 9999 SCT004 SCT018 15/14 Q1005 
EGJB 271550Z 27006KT 9999 SCT004 BKN013 15/14 Q1005 
EGJB 271520Z 28006KT 9999 FEW001 SCT004 BKN010 14/14 Q1005  
EGJB 271450Z 29006KT 9999 VCSH FEW001 BKN005 BKN010 14/14 Q1005 
EGJB 271420Z 28008KT 9999 VCSH FEW003 BKN005 15/14 Q1005
EGJB 271350Z 29007KT 7000 -SHRA FEW003 SCT006 15/14 Q1006   
EGJB 271320Z 28006KT 9999 -SHRA FEW003 SCT005 15/14 Q1006 RESHRA
EGJB 271250Z 29005KT 5000 SHRA FEW003 SCT005 BKN025 15/14 Q1006 
EGJB 271220Z 29005KT 9999 -SHRA FEW003 SCT007 BKN025 15/14 Q1006
EGJB 271150Z 30006KT 260V320 9999 FEW003 SCT007 BKN025 15/14 Q1006  
EGJB 271120Z 31005KT 290V350 9000 -SHRA SCT003 BKN007 BKN025 15/15 Q1007
EGJB 271050Z 30008KT 9000 -SHRA SCT003 SCT007 FEW030CB 15/14 Q1007  
EGJB 271020Z 30008KT 5000 -SHRA FEW004 FEW030CB 14/14 Q1007 RESHRA  
EGJB 270950Z 30008KT 9999 -RA FEW004 SCT024 15/14 Q1007 
EGJB 270920Z 30008KT 9999 -RA FEW003 SCT024 15/14 Q1007 
EGJB 270850Z 30007KT 6000 -RA FEW003 SCT024 15/14 Q1007 
EGJB 270820Z 30008KT 8000 -RA FEW010 14/14 Q1007
EGJB 270750Z 30008KT 9999 -RA FEW012 SCT028 15/14 Q1007 
EGJB 270720Z 30008KT 9999 -RA FEW030 15/13 Q1007
EGJB 270650Z 30007KT 9999 -RA FEW030 15/13 Q1007
EGJB 270620Z 31005KT 9999 -SHRA FEW030 14/13 Q1007  
EGJB 270550Z 31005KT 9999 FEW030 14/14 Q1007
EGJB 270520Z 30005KT 9999 FEW030 14/14 Q1008
EGJB 270450Z 31005KT 6000 FEW001 14/14 Q1008